Terminal Aerodrome Forecast
Issued by NWS

Home | Current Version | Previous Version | Text Only | Print | Product List | Glossary On
Versions: 1 2 3 4 5 6 7 8 9 10 11 12 13 14 15 16 17 18 19 20 21 22 23 24 25
000
FTUS43 KGRR 271800 AAA
TAFAZO
TAF AMD
KAZO 271804Z 2718/2818 21014G22KT 6SM -DZ BR OVC006
      TEMPO 2718/2721 2SM -SHRA BR OVC003
     FM272300 27014G22KT 4SM BR OVC012
     FM280300 28010KT P6SM OVC015
     FM281500 28006KT P6SM FEW025=

USA.gov is the U.S. government's official web portal to all federal, state and local government web resources and services.